createdAt,value
2023-01-25T00:00:48.824Z,14.48
2023-01-25T00:03:15.644Z,15.82
2023-01-25T00:05:44.443Z,16.10
2023-01-25T00:08:11.127Z,16.65
2023-01-25T00:10:40.127Z,15.23
2023-01-25T00:13:09.099Z,16.50
2023-01-25T00:15:35.775Z,14.88
2023-01-25T00:18:02.420Z,16.58
2023-01-25T00:20:31.277Z,15.52
2023-01-25T00:23:00.110Z,16.60
2023-01-25T00:25:29.021Z,15.93
2023-01-25T00:27:55.666Z,16.17
2023-01-25T00:30:22.299Z,16.13
2023-01-25T00:33:21.314Z,14.82
2023-01-25T00:35:49.112Z,15.80
2023-01-25T00:38:36.671Z,15.73
2023-01-25T00:41:03.341Z,15.50
2023-01-25T00:43:32.814Z,16.70
2023-01-25T00:46:02.899Z,15.18
2023-01-25T00:48:31.889Z,16.55
2023-01-25T00:51:06.432Z,16.10
2023-01-25T00:53:33.102Z,15.63
2023-01-25T00:55:59.816Z,15.57
2023-01-25T00:58:27.013Z,15.75
2023-01-25T01:00:54.772Z,16.13
2023-01-25T01:03:22.013Z,16.38
2023-01-25T01:05:48.687Z,16.30
2023-01-25T01:08:15.955Z,15.85
2023-01-25T01:10:42.679Z,15.52
2023-01-25T01:13:09.354Z,16.30
2023-01-25T01:15:39.635Z,16.08
2023-01-25T01:18:06.315Z,15.48
2023-01-25T01:20:33.006Z,15.48
2023-01-25T01:23:06.802Z,15.90
2023-01-25T01:27:59.979Z,14.77
2023-01-25T01:30:29.246Z,15.52
2023-01-25T01:32:55.959Z,16.60
2023-01-25T01:35:22.640Z,14.55
2023-01-25T01:37:49.404Z,15.30
2023-01-25T01:40:17.136Z,15.98
2023-01-25T01:43:01.020Z,15.13
2023-01-25T01:45:46.278Z,15.93
2023-01-25T01:48:30.913Z,16.25
2023-01-25T01:51:03.013Z,15.52
2023-01-25T01:53:34.240Z,15.75
2023-01-25T01:56:04.085Z,16.08
2023-01-25T01:58:32.362Z,16.83
2023-01-25T02:00:59.157Z,16.42
2023-01-25T02:03:27.614Z,15.98
2023-01-25T02:05:57.030Z,16.10
2023-01-25T02:08:24.869Z,16.98
2023-01-25T02:10:53.755Z,16.48
2023-01-25T02:13:23.585Z,16.55
2023-01-25T02:15:52.366Z,16.75
2023-01-25T02:18:19.650Z,17.27
2023-01-25T02:20:53.960Z,16.33
2023-01-25T02:23:32.659Z,16.75
2023-01-25T02:26:03.657Z,16.65
2023-01-25T02:28:51.590Z,16.58
2023-01-25T02:31:20.606Z,16.30
2023-01-25T02:33:47.332Z,16.10
2023-01-25T02:36:24.075Z,15.05
2023-01-25T02:39:03.810Z,15.82
2023-01-25T02:41:39.230Z,15.90
2023-01-25T02:44:09.738Z,15.98
2023-01-25T02:46:41.598Z,15.75
2023-01-25T02:49:09.808Z,14.80
2023-01-25T02:51:41.471Z,16.08
2023-01-25T02:54:10.987Z,15.95
2023-01-25T02:56:40.630Z,16.65
2023-01-25T02:59:09.096Z,15.38
2023-01-25T03:01:38.698Z,15.93
2023-01-25T03:04:06.081Z,16.13
2023-01-25T03:06:35.721Z,15.73
2023-01-25T03:09:04.183Z,16.98
2023-01-25T03:11:33.634Z,16.13
2023-01-25T03:14:00.580Z,16.08
2023-01-25T03:16:27.294Z,16.60
2023-01-25T03:18:54.875Z,16.50
2023-01-25T03:21:22.870Z,16.05
2023-01-25T03:23:55.962Z,16.27
2023-01-25T03:26:23.916Z,15.25
2023-01-25T03:28:57.797Z,15.05
2023-01-25T03:31:24.968Z,17.38
2023-01-25T03:33:51.814Z,16.55
2023-01-25T03:36:18.762Z,16.27
2023-01-25T03:38:45.488Z,17.25
2023-01-25T03:41:13.786Z,15.68
2023-01-25T03:43:42.689Z,16.17
2023-01-25T03:46:09.330Z,16.23
2023-01-25T03:48:35.981Z,16.73
2023-01-25T03:51:02.661Z,15.80
2023-01-25T03:53:31.242Z,15.82
2023-01-25T03:56:01.182Z,16.85
2023-01-25T03:58:29.067Z,16.25
2023-01-25T04:00:57.640Z,16.70
2023-01-25T04:03:25.100Z,16.08
2023-01-25T04:05:53.300Z,18.00
2023-01-25T04:08:20.034Z,16.23
2023-01-25T04:11:01.059Z,17.10
2023-01-25T04:13:28.104Z,17.08
2023-01-25T04:15:55.076Z,16.45
2023-01-25T04:18:21.923Z,16.75
2023-01-25T04:20:56.286Z,16.60
2023-01-25T04:23:24.373Z,14.90
2023-01-25T04:26:02.133Z,15.45
2023-01-25T04:28:31.317Z,15.95
2023-01-25T04:30:58.212Z,16.35
2023-01-25T04:33:25.831Z,16.30
2023-01-25T04:35:52.727Z,16.17
2023-01-25T04:38:19.848Z,15.38
2023-01-25T04:40:48.638Z,15.52
2023-01-25T04:43:19.146Z,15.38
2023-01-25T04:45:48.541Z,16.23
2023-01-25T04:48:18.153Z,16.35
2023-01-25T04:50:46.187Z,15.52
2023-01-25T04:53:15.386Z,15.00
2023-01-25T04:55:47.981Z,16.20
2023-01-25T04:58:14.932Z,15.15
2023-01-25T05:00:41.610Z,15.80
2023-01-25T05:03:08.341Z,16.95
2023-01-25T05:05:35.062Z,15.95
2023-01-25T05:08:01.695Z,15.52
2023-01-25T05:10:28.361Z,16.02
2023-01-25T05:12:54.939Z,14.98
2023-01-25T05:15:21.639Z,17.17
2023-01-25T05:17:48.283Z,15.50
2023-01-25T05:20:15.013Z,15.43
2023-01-25T05:22:41.740Z,16.33
2023-01-25T05:25:31.116Z,15.85
2023-01-25T05:27:57.845Z,14.23
2023-01-25T05:30:26.819Z,15.18
2023-01-25T05:32:56.039Z,15.90
2023-01-25T05:35:22.873Z,16.25
2023-01-25T05:37:49.481Z,15.75
2023-01-25T05:40:16.377Z,16.77
2023-01-25T05:42:43.009Z,15.70
2023-01-25T05:45:10.473Z,15.90
2023-01-25T05:47:37.372Z,16.15
2023-01-25T05:50:04.446Z,16.25
2023-01-25T05:52:33.515Z,15.90
2023-01-25T05:55:00.174Z,16.65
2023-01-25T05:57:29.129Z,17.67
2023-01-25T05:59:55.924Z,16.92
2023-01-25T06:02:22.669Z,15.85
2023-01-25T06:04:49.332Z,16.27
2023-01-25T06:07:16.005Z,17.10
2023-01-25T06:09:42.613Z,17.00
2023-01-25T06:12:10.706Z,16.17
2023-01-25T06:14:37.370Z,16.75
2023-01-25T06:17:04.100Z,16.92
2023-01-25T06:19:33.146Z,16.42
2023-01-25T06:21:59.920Z,18.13
2023-01-25T06:24:29.069Z,17.27
2023-01-25T06:26:55.705Z,17.80
2023-01-25T06:29:22.300Z,16.25
2023-01-25T06:31:51.500Z,16.90
2023-01-25T06:34:18.309Z,16.58
2023-01-25T06:36:44.904Z,15.95
2023-01-25T06:39:11.690Z,16.83
2023-01-25T06:41:38.296Z,14.70
2023-01-25T06:44:05.095Z,12.27
2023-01-25T06:46:37.482Z,12.07
2023-01-25T06:49:06.721Z,12.77
2023-01-25T06:51:33.363Z,13.30
2023-01-25T06:54:03.335Z,12.98
2023-01-25T06:56:30.150Z,11.68
2023-01-25T06:58:56.793Z,12.48
2023-01-25T07:01:27.515Z,13.20
2023-01-25T07:03:56.351Z,13.77
2023-01-25T07:06:23.538Z,13.35
2023-01-25T07:08:52.059Z,12.68
2023-01-25T07:11:19.094Z,11.65
2023-01-25T07:13:47.263Z,11.40
2023-01-25T07:16:19.897Z,11.27
2023-01-25T07:18:46.992Z,11.40
2023-01-25T07:21:21.534Z,12.60
2023-01-25T07:23:49.817Z,12.30
2023-01-25T07:26:26.071Z,12.82
2023-01-25T07:28:53.597Z,13.73
2023-01-25T07:31:21.252Z,12.93
2023-01-25T07:33:51.606Z,13.05
2023-01-25T07:36:18.659Z,13.55
2023-01-25T07:38:48.013Z,14.07
2023-01-25T07:41:16.271Z,12.90
2023-01-25T07:43:43.088Z,14.45
2023-01-25T07:46:12.307Z,14.50
2023-01-25T07:48:40.789Z,13.85
2023-01-25T07:51:23.200Z,14.05
2023-01-25T07:53:55.402Z,13.43
2023-01-25T07:56:24.867Z,12.25
2023-01-25T07:58:56.035Z,13.38
2023-01-25T08:01:25.748Z,15.13
2023-01-25T08:03:53.174Z,14.75
2023-01-25T08:06:35.440Z,13.60
2023-01-25T08:09:07.054Z,13.15
2023-01-25T08:11:34.724Z,12.27
2023-01-25T08:14:04.075Z,12.95
2023-01-25T08:16:34.024Z,12.68
2023-01-25T08:19:03.351Z,14.48
2023-01-25T08:21:33.419Z,13.93
2023-01-25T08:24:05.034Z,12.80
2023-01-25T08:26:32.054Z,12.80
2023-01-25T08:29:01.516Z,11.55
2023-01-25T08:31:31.094Z,12.63
2023-01-25T08:33:58.683Z,13.35
2023-01-25T08:36:28.404Z,13.27
2023-01-25T08:38:59.554Z,13.10
2023-01-25T08:41:34.099Z,12.50
2023-01-25T08:44:01.110Z,13.20
2023-01-25T08:46:31.893Z,12.95
2023-01-25T08:49:01.003Z,11.88
2023-01-25T08:51:28.500Z,11.75
2023-01-25T08:53:57.774Z,11.55
2023-01-25T08:56:26.709Z,11.32
2023-01-25T08:58:53.365Z,12.02
2023-01-25T09:01:20.322Z,11.60
2023-01-25T09:03:50.912Z,10.70
2023-01-25T09:06:19.621Z,10.75
2023-01-25T09:08:46.368Z,11.48
2023-01-25T09:11:16.039Z,13.60
2023-01-25T09:13:43.557Z,13.52
2023-01-25T09:16:13.863Z,13.43
2023-01-25T09:18:42.520Z,12.32
2023-01-25T09:21:15.077Z,13.38
2023-01-25T09:23:51.261Z,14.75
2023-01-25T09:26:24.794Z,13.93
2023-01-25T09:28:53.200Z,14.48
2023-01-25T09:31:23.626Z,13.80
2023-01-25T09:33:52.595Z,14.27
2023-01-25T09:36:20.711Z,15.05
2023-01-25T09:38:47.483Z,17.45
2023-01-25T09:41:31.924Z,15.98
2023-01-25T09:44:15.294Z,15.77
2023-01-25T09:46:52.359Z,15.65
2023-01-25T09:49:39.183Z,15.90
2023-01-25T09:52:39.858Z,16.55
2023-01-25T09:55:18.526Z,15.85
2023-01-25T09:57:50.976Z,14.68
2023-01-25T10:00:27.870Z,14.13
2023-01-25T10:03:03.564Z,13.27
2023-01-25T10:05:39.993Z,13.77
2023-01-25T10:08:29.614Z,15.63
2023-01-25T10:11:14.875Z,13.48
2023-01-25T10:13:43.949Z,12.82
2023-01-25T10:16:25.867Z,11.40
2023-01-25T10:19:01.679Z,12.75
2023-01-25T10:21:35.290Z,11.52
2023-01-25T10:24:46.091Z,12.45
2023-01-25T10:27:45.640Z,12.13
2023-01-25T10:30:35.994Z,13.25
2023-01-25T10:33:11.900Z,12.40
2023-01-25T10:35:47.234Z,12.50
2023-01-25T10:38:24.485Z,12.05
2023-01-25T10:40:57.052Z,12.10
2023-01-25T10:43:23.967Z,14.25
2023-01-25T10:45:52.962Z,12.98
2023-01-25T10:48:36.590Z,14.75
2023-01-25T10:51:03.302Z,15.52
2023-01-25T10:53:39.435Z,16.00
2023-01-25T10:56:19.198Z,15.95
2023-01-25T10:58:48.676Z,15.15
2023-01-25T11:01:33.348Z,15.88
2023-01-25T11:04:01.654Z,17.90
2023-01-25T11:06:36.676Z,18.30
2023-01-25T11:09:26.994Z,18.63
2023-01-25T11:11:58.355Z,18.63
2023-01-25T11:14:29.368Z,19.02
2023-01-25T11:17:00.302Z,18.23
2023-01-25T11:19:36.571Z,17.92
2023-01-25T11:22:24.196Z,17.92
2023-01-25T11:24:50.888Z,18.05
2023-01-25T11:27:24.586Z,17.75
2023-01-25T11:30:14.426Z,16.27
2023-01-25T11:32:42.057Z,17.10
2023-01-25T11:35:17.969Z,17.17
2023-01-25T11:38:17.886Z,16.92
2023-01-25T11:41:00.637Z,17.75
2023-01-25T11:43:49.296Z,17.52
2023-01-25T11:46:31.166Z,16.00
2023-01-25T11:49:19.951Z,15.98
2023-01-25T11:52:09.336Z,14.88
2023-01-25T11:54:41.712Z,15.38
2023-01-25T11:57:35.383Z,15.32
2023-01-25T12:00:22.616Z,15.65
2023-01-25T12:03:19.942Z,15.20
2023-01-25T12:05:55.959Z,13.73
2023-01-25T12:08:55.922Z,13.88
2023-01-25T12:11:28.738Z,14.25
2023-01-25T12:14:16.435Z,12.93
2023-01-25T12:17:07.656Z,12.75
2023-01-25T12:20:06.940Z,13.07
2023-01-25T12:23:12.900Z,12.77
2023-01-25T12:26:27.687Z,12.77
2023-01-25T12:29:16.594Z,13.27
2023-01-25T12:31:57.014Z,12.75
2023-01-25T12:34:31.235Z,13.82
2023-01-25T12:37:03.624Z,13.57
2023-01-25T12:39:40.324Z,13.82
2023-01-25T12:42:20.327Z,14.23
2023-01-25T12:44:50.358Z,13.63
2023-01-25T12:47:42.470Z,14.07
2023-01-25T12:50:33.992Z,14.70
2023-01-25T12:53:11.072Z,14.88
2023-01-25T12:55:38.248Z,15.18
2023-01-25T12:58:32.777Z,15.18
2023-01-25T13:01:38.940Z,15.25
2023-01-25T13:04:37.176Z,17.08
2023-01-25T13:07:18.704Z,17.20
2023-01-25T13:10:12.462Z,16.20
2023-01-25T13:13:03.141Z,16.48
2023-01-25T13:15:42.669Z,14.20
2023-01-25T13:18:24.426Z,15.15
2023-01-25T13:20:53.775Z,15.63
2023-01-25T13:23:35.402Z,16.88
2023-01-25T13:26:20.951Z,19.00
2023-01-25T13:28:49.601Z,17.25
2023-01-25T13:31:58.922Z,15.95
2023-01-25T13:34:39.177Z,15.88
2023-01-25T13:37:20.239Z,14.13
2023-01-25T13:39:54.423Z,15.52
2023-01-25T13:42:29.337Z,15.02
2023-01-25T13:45:15.653Z,14.07
2023-01-25T13:47:44.598Z,13.18
2023-01-25T13:50:25.151Z,13.98
2023-01-25T13:53:16.979Z,14.48
2023-01-25T13:55:53.133Z,14.15
2023-01-25T13:58:28.951Z,14.15
2023-01-25T14:01:04.126Z,14.55
2023-01-25T14:03:35.602Z,13.35
2023-01-25T14:06:07.377Z,12.27
2023-01-25T14:08:34.215Z,11.95
2023-01-25T14:11:00.954Z,13.10
2023-01-25T14:13:27.606Z,13.95
2023-01-25T14:16:01.940Z,14.00
2023-01-25T14:18:38.146Z,14.57
2023-01-25T14:21:18.349Z,12.15
2023-01-25T14:23:48.663Z,13.98
2023-01-25T14:26:29.793Z,15.07
2023-01-25T14:29:01.469Z,15.77
2023-01-25T14:31:35.804Z,16.83
2023-01-25T14:34:04.739Z,17.15
2023-01-25T14:36:34.497Z,17.65
2023-01-25T14:39:13.377Z,16.02
2023-01-25T14:41:51.749Z,16.70
2023-01-25T14:44:28.667Z,16.75
2023-01-25T14:47:21.970Z,16.27
2023-01-25T14:49:48.858Z,15.98
2023-01-25T14:52:19.537Z,15.85
2023-01-25T14:54:51.668Z,17.17
2023-01-25T14:57:35.447Z,15.68
2023-01-25T15:00:21.861Z,16.67
2023-01-25T15:02:56.598Z,16.52
2023-01-25T15:05:33.043Z,15.43
2023-01-25T15:08:12.406Z,16.65
2023-01-25T15:10:54.718Z,16.70
2023-01-25T15:13:26.804Z,15.75
2023-01-25T15:16:00.972Z,14.85
2023-01-25T15:18:59.890Z,14.30
2023-01-25T15:21:33.799Z,13.05
2023-01-25T15:24:06.683Z,13.73
2023-01-25T15:26:35.371Z,13.88
2023-01-25T15:29:08.062Z,13.77
2023-01-25T15:31:37.598Z,12.60
2023-01-25T15:34:04.922Z,13.02
2023-01-25T15:36:34.235Z,13.05
2023-01-25T15:39:01.492Z,13.93
2023-01-25T15:41:32.909Z,14.80
2023-01-25T15:44:02.043Z,13.75
2023-01-25T15:46:33.278Z,15.20
2023-01-25T15:49:00.560Z,14.75
2023-01-25T15:51:28.504Z,15.27
2023-01-25T15:53:55.277Z,15.73
2023-01-25T15:56:24.775Z,15.75
2023-01-25T15:58:57.640Z,14.40
2023-01-25T16:01:27.272Z,15.67
2023-01-25T16:03:57.914Z,14.68
2023-01-25T16:06:44.582Z,15.60
2023-01-25T16:09:26.806Z,15.90
2023-01-25T16:12:03.000Z,14.98
2023-01-25T16:14:31.470Z,14.52
2023-01-25T16:17:02.385Z,15.07
2023-01-25T16:19:30.070Z,16.55
2023-01-25T16:21:57.060Z,16.35
2023-01-25T16:24:26.877Z,16.92
2023-01-25T16:26:57.586Z,18.38
2023-01-25T16:29:25.259Z,17.30
2023-01-25T16:31:53.363Z,18.38
2023-01-25T16:34:20.940Z,16.80
2023-01-25T16:36:50.525Z,18.48
2023-01-25T16:39:21.865Z,18.15
2023-01-25T16:41:49.521Z,17.40
2023-01-25T16:44:17.437Z,19.15
2023-01-25T16:46:47.432Z,18.90
2023-01-25T16:49:20.178Z,19.63
2023-01-25T16:51:48.930Z,19.13
2023-01-25T16:54:15.913Z,18.10
2023-01-25T16:56:42.588Z,17.70
2023-01-25T16:59:10.281Z,17.30
2023-01-25T17:01:39.891Z,18.77
2023-01-25T17:04:07.226Z,17.45
2023-01-25T17:06:36.227Z,18.10
2023-01-25T17:09:20.657Z,18.30
2023-01-25T17:11:48.511Z,18.40
2023-01-25T17:14:18.794Z,18.45
2023-01-25T17:16:47.958Z,18.67
2023-01-25T17:19:16.053Z,19.98
2023-01-25T17:21:43.366Z,18.75
2023-01-25T17:24:13.580Z,19.25
2023-01-25T17:26:45.391Z,18.67
2023-01-25T17:29:14.454Z,19.67
2023-01-25T17:31:42.298Z,19.33
2023-01-25T17:34:13.220Z,17.20
2023-01-25T17:36:39.986Z,17.83
2023-01-25T17:39:07.911Z,16.33
2023-01-25T17:41:34.730Z,16.75
2023-01-25T17:44:01.476Z,16.67
2023-01-25T17:46:32.887Z,17.40
2023-01-25T17:49:01.997Z,16.77
2023-01-25T17:51:29.364Z,17.70
2023-01-25T17:53:58.389Z,18.27
2023-01-25T17:56:25.684Z,18.40
2023-01-25T17:58:53.003Z,18.02
2023-01-25T18:01:21.029Z,17.80
2023-01-25T18:03:49.189Z,16.30
2023-01-25T18:06:19.035Z,16.48
2023-01-25T18:08:48.270Z,16.02
2023-01-25T18:11:23.077Z,18.38
2023-01-25T18:13:52.531Z,18.33
2023-01-25T18:16:23.447Z,17.13
2023-01-25T18:18:52.163Z,17.33
2023-01-25T18:21:24.103Z,17.08
2023-01-25T18:23:56.063Z,17.67
2023-01-25T18:26:28.279Z,17.70
2023-01-25T18:29:02.742Z,19.38
2023-01-25T18:31:29.693Z,18.10
2023-01-25T18:33:58.061Z,18.25
2023-01-25T18:36:25.231Z,17.75
2023-01-25T18:38:54.739Z,17.13
2023-01-25T18:41:21.395Z,15.48
2023-01-25T18:43:51.147Z,17.70
2023-01-25T18:46:17.910Z,17.27
2023-01-25T18:48:47.043Z,17.38
2023-01-25T18:51:17.382Z,17.75
2023-01-25T18:53:47.210Z,17.38
2023-01-25T18:56:19.363Z,17.45
2023-01-25T18:58:47.137Z,17.33
2023-01-25T19:01:20.253Z,17.15
2023-01-25T19:03:48.931Z,17.38
2023-01-25T19:06:19.253Z,17.13
2023-01-25T19:08:51.893Z,16.98
2023-01-25T19:11:20.682Z,17.42
2023-01-25T19:13:48.171Z,17.45
2023-01-25T19:16:20.964Z,17.13
2023-01-25T19:18:52.166Z,18.40
2023-01-25T19:21:25.358Z,19.05
2023-01-25T19:23:56.300Z,17.83
2023-01-25T19:26:24.807Z,17.33
2023-01-25T19:28:52.648Z,16.58
2023-01-25T19:31:22.385Z,16.83
2023-01-25T19:33:55.949Z,15.45
2023-01-25T19:36:23.564Z,17.02
2023-01-25T19:38:51.140Z,19.98
2023-01-25T19:41:23.197Z,17.17
2023-01-25T19:44:00.929Z,16.27
2023-01-25T19:46:33.752Z,17.05
2023-01-25T19:49:02.274Z,17.87
2023-01-25T19:51:37.599Z,17.48
2023-01-25T19:54:12.860Z,18.77
2023-01-25T19:56:41.416Z,18.70
2023-01-25T19:59:17.685Z,18.75
2023-01-25T20:01:45.372Z,18.45
2023-01-25T20:04:15.105Z,17.80
2023-01-25T20:06:44.123Z,19.23
2023-01-25T20:09:16.051Z,18.75
2023-01-25T20:11:42.827Z,18.60
2023-01-25T20:14:13.717Z,18.55
2023-01-25T20:16:43.905Z,19.15
2023-01-25T20:19:13.668Z,20.45
2023-01-25T20:21:42.601Z,19.75
2023-01-25T20:24:10.531Z,18.10
2023-01-25T20:26:39.677Z,18.13
2023-01-25T20:29:07.679Z,17.52
2023-01-25T20:31:41.751Z,18.48
2023-01-25T20:34:13.053Z,18.42
2023-01-25T20:36:40.201Z,18.77
2023-01-25T20:39:11.833Z,18.98
2023-01-25T20:41:38.748Z,19.38
2023-01-25T20:44:08.645Z,20.42
2023-01-25T20:46:40.193Z,19.67
2023-01-25T20:49:13.585Z,18.80
2023-01-25T20:51:40.219Z,16.65
2023-01-25T20:54:12.136Z,16.15
2023-01-25T20:56:40.990Z,16.75
2023-01-25T20:59:10.308Z,16.13
2023-01-25T21:01:37.586Z,17.42
2023-01-25T21:04:07.723Z,16.48
2023-01-25T21:06:35.229Z,18.83
2023-01-25T21:09:03.101Z,18.75
2023-01-25T21:11:32.071Z,18.83
2023-01-25T21:13:59.598Z,19.27
2023-01-25T21:16:26.439Z,18.25
2023-01-25T21:19:00.192Z,17.88
2023-01-25T21:23:56.955Z,18.50
2023-01-25T21:26:32.062Z,18.98
2023-01-25T21:29:00.607Z,18.88
2023-01-25T21:31:34.780Z,19.73
2023-01-25T21:34:05.260Z,18.08
2023-01-25T21:36:32.474Z,19.63
2023-01-25T21:38:59.199Z,19.58
2023-01-25T21:41:29.458Z,19.83
2023-01-25T21:44:18.948Z,21.08
2023-01-25T21:47:12.435Z,18.80
2023-01-25T21:49:53.228Z,18.65
2023-01-25T21:52:19.938Z,18.77
2023-01-25T21:54:48.851Z,17.13
2023-01-25T21:57:15.538Z,16.73
2023-01-25T21:59:42.218Z,16.48
2023-01-25T22:02:13.877Z,18.13
2023-01-25T22:04:40.632Z,16.42
2023-01-25T22:07:08.897Z,17.45
2023-01-25T22:09:35.894Z,18.40
2023-01-25T22:12:04.930Z,17.20
2023-01-25T22:14:31.616Z,15.75
2023-01-25T22:16:58.343Z,15.63
2023-01-25T22:19:25.002Z,16.90
2023-01-25T22:21:51.754Z,17.52
2023-01-25T22:24:20.946Z,17.85
2023-01-25T22:26:53.718Z,16.80
2023-01-25T22:29:20.477Z,16.60
2023-01-25T22:31:47.173Z,18.23
2023-01-25T22:34:13.843Z,17.95
2023-01-25T22:36:40.562Z,19.55
2023-01-25T22:39:14.809Z,18.33
2023-01-25T22:41:42.380Z,18.75
2023-01-25T22:44:09.807Z,18.23
2023-01-25T22:46:37.063Z,17.42
2023-01-25T22:49:04.764Z,17.42
2023-01-25T22:51:33.863Z,15.82
2023-01-25T22:54:00.790Z,15.63
2023-01-25T22:56:32.010Z,15.88
2023-01-25T22:58:59.755Z,16.60
2023-01-25T23:01:29.516Z,16.20
2023-01-25T23:03:59.325Z,16.20
2023-01-25T23:06:28.507Z,15.80
2023-01-25T23:09:01.557Z,16.85
2023-01-25T23:11:32.056Z,17.25
2023-01-25T23:14:18.234Z,14.52
2023-01-25T23:16:47.281Z,16.00
2023-01-25T23:19:14.102Z,14.85
2023-01-25T23:21:41.624Z,15.63
2023-01-25T23:24:09.448Z,16.33
2023-01-25T23:26:46.250Z,15.57
2023-01-25T23:29:14.290Z,14.10
2023-01-25T23:31:41.105Z,15.45
2023-01-25T23:34:07.780Z,14.32
2023-01-25T23:36:41.755Z,14.30
2023-01-25T23:39:12.121Z,14.10
2023-01-25T23:41:38.817Z,15.25
2023-01-25T23:44:08.992Z,14.88
2023-01-25T23:46:35.865Z,16.27
2023-01-25T23:49:02.619Z,15.68
2023-01-25T23:51:29.312Z,17.02
2023-01-25T23:53:57.667Z,16.65
2023-01-25T23:56:24.402Z,15.43
2023-01-25T23:58:51.118Z,16.58
